sensor_id;sensor_type;location;lat;lon;timestamp;temperature;humidity
18906;DHT22;9585;51.018;4.282;2022-10-29T00:00:51;14.50;99.90
18906;DHT22;9585;51.018;4.282;2022-10-29T00:03:20;14.50;99.90
18906;DHT22;9585;51.018;4.282;2022-10-29T00:05:55;14.50;99.90
18906;DHT22;9585;51.018;4.282;2022-10-29T00:08:22;14.40;99.90
18906;DHT22;9585;51.018;4.282;2022-10-29T00:10:49;14.30;99.90
18906;DHT22;9585;51.018;4.282;2022-10-29T00:13:18;14.30;99.90
18906;DHT22;9585;51.018;4.282;2022-10-29T00:15:45;14.30;99.90
18906;DHT22;9585;51.018;4.282;2022-10-29T00:18:12;14.20;99.90
18906;DHT22;9585;51.018;4.282;2022-10-29T00:20:40;14.20;99.90
18906;DHT22;9585;51.018;4.282;2022-10-29T00:23:07;14.20;99.90
18906;DHT22;9585;51.018;4.282;2022-10-29T00:25:34;14.10;99.90
18906;DHT22;9585;51.018;4.282;2022-10-29T00:28:01;14.10;99.90
18906;DHT22;9585;51.018;4.282;2022-10-29T00:30:30;14.10;99.90
18906;DHT22;9585;51.018;4.282;2022-10-29T00:32:58;14.10;99.90
18906;DHT22;9585;51.018;4.282;2022-10-29T00:35:25;14.10;99.90
18906;DHT22;9585;51.018;4.282;2022-10-29T00:37:52;14.10;99.90
18906;DHT22;9585;51.018;4.282;2022-10-29T00:40:19;14.00;99.90
18906;DHT22;9585;51.018;4.282;2022-10-29T00:42:46;14.00;99.90
18906;DHT22;9585;51.018;4.282;2022-10-29T00:45:18;14.00;99.90
18906;DHT22;9585;51.018;4.282;2022-10-29T00:47:50;14.00;99.90
18906;DHT22;9585;51.018;4.282;2022-10-29T00:50:20;14.00;99.90
18906;DHT22;9585;51.018;4.282;2022-10-29T00:52:49;13.90;99.90
18906;DHT22;9585;51.018;4.282;2022-10-29T00:55:18;13.90;99.90
18906;DHT22;9585;51.018;4.282;2022-10-29T00:57:49;13.90;99.90
18906;DHT22;9585;51.018;4.282;2022-10-29T01:00:18;13.80;99.90
18906;DHT22;9585;51.018;4.282;2022-10-29T01:02:47;13.80;99.90
18906;DHT22;9585;51.018;4.282;2022-10-29T01:05:18;13.80;99.90
18906;DHT22;9585;51.018;4.282;2022-10-29T01:07:47;13.80;99.90
18906;DHT22;9585;51.018;4.282;2022-10-29T01:10:15;13.80;99.90
18906;DHT22;9585;51.018;4.282;2022-10-29T01:13:00;13.80;99.90
18906;DHT22;9585;51.018;4.282;2022-10-29T01:15:39;13.80;99.90
18906;DHT22;9585;51.018;4.282;2022-10-29T01:18:14;13.80;99.90
18906;DHT22;9585;51.018;4.282;2022-10-29T01:21:19;13.80;99.90
18906;DHT22;9585;51.018;4.282;2022-10-29T01:27:22;13.80;99.90
18906;DHT22;9585;51.018;4.282;2022-10-29T01:30:09;13.80;99.90
18906;DHT22;9585;51.018;4.282;2022-10-29T01:32:49;13.60;99.90
18906;DHT22;9585;51.018;4.282;2022-10-29T01:35:24;13.60;99.90
18906;DHT22;9585;51.018;4.282;2022-10-29T01:38:01;13.70;99.90
18906;DHT22;9585;51.018;4.282;2022-10-29T01:40:35;13.70;99.90
18906;DHT22;9585;51.018;4.282;2022-10-29T01:43:07;13.70;99.90
18906;DHT22;9585;51.018;4.282;2022-10-29T01:45:42;13.70;99.90
18906;DHT22;9585;51.018;4.282;2022-10-29T01:48:14;13.70;99.90
18906;DHT22;9585;51.018;4.282;2022-10-29T01:50:45;13.80;99.90
18906;DHT22;9585;51.018;4.282;2022-10-29T01:53:15;13.80;99.90
18906;DHT22;9585;51.018;4.282;2022-10-29T01:55:43;13.70;99.90
18906;DHT22;9585;51.018;4.282;2022-10-29T01:58:11;13.70;99.90
18906;DHT22;9585;51.018;4.282;2022-10-29T02:00:45;13.70;99.90
18906;DHT22;9585;51.018;4.282;2022-10-29T02:03:27;13.70;99.90
18906;DHT22;9585;51.018;4.282;2022-10-29T02:06:06;13.70;99.90
18906;DHT22;9585;51.018;4.282;2022-10-29T02:08:43;13.70;99.90
18906;DHT22;9585;51.018;4.282;2022-10-29T02:11:16;13.60;99.90
18906;DHT22;9585;51.018;4.282;2022-10-29T02:13:52;13.60;99.90
18906;DHT22;9585;51.018;4.282;2022-10-29T02:16:24;13.60;99.90
18906;DHT22;9585;51.018;4.282;2022-10-29T02:18:54;13.60;99.90
18906;DHT22;9585;51.018;4.282;2022-10-29T02:21:22;13.60;99.90
18906;DHT22;9585;51.018;4.282;2022-10-29T02:23:50;13.50;99.90
18906;DHT22;9585;51.018;4.282;2022-10-29T02:26:17;13.60;99.90
18906;DHT22;9585;51.018;4.282;2022-10-29T02:28:46;13.60;99.90
18906;DHT22;9585;51.018;4.282;2022-10-29T02:31:13;13.70;99.90
18906;DHT22;9585;51.018;4.282;2022-10-29T02:33:41;13.70;99.90
18906;DHT22;9585;51.018;4.282;2022-10-29T02:36:10;13.80;99.90
18906;DHT22;9585;51.018;4.282;2022-10-29T02:38:37;13.80;99.90
18906;DHT22;9585;51.018;4.282;2022-10-29T02:41:04;13.80;99.90
18906;DHT22;9585;51.018;4.282;2022-10-29T02:43:32;13.80;99.90
18906;DHT22;9585;51.018;4.282;2022-10-29T02:46:13;13.80;99.90
18906;DHT22;9585;51.018;4.282;2022-10-29T02:48:40;13.80;99.90
18906;DHT22;9585;51.018;4.282;2022-10-29T02:51:10;13.80;99.90
18906;DHT22;9585;51.018;4.282;2022-10-29T02:53:37;13.80;99.90
18906;DHT22;9585;51.018;4.282;2022-10-29T02:56:05;13.90;99.90
18906;DHT22;9585;51.018;4.282;2022-10-29T02:58:33;13.90;99.90
18906;DHT22;9585;51.018;4.282;2022-10-29T03:01:01;14.00;99.90
18906;DHT22;9585;51.018;4.282;2022-10-29T03:03:28;13.90;99.90
18906;DHT22;9585;51.018;4.282;2022-10-29T03:05:55;13.90;99.90
18906;DHT22;9585;51.018;4.282;2022-10-29T03:08:24;14.00;99.90
18906;DHT22;9585;51.018;4.282;2022-10-29T03:10:51;14.00;99.90
18906;DHT22;9585;51.018;4.282;2022-10-29T03:13:20;13.90;99.90
18906;DHT22;9585;51.018;4.282;2022-10-29T03:15:47;13.90;99.90
18906;DHT22;9585;51.018;4.282;2022-10-29T03:18:15;13.90;99.90
18906;DHT22;9585;51.018;4.282;2022-10-29T03:20:42;13.80;99.90
18906;DHT22;9585;51.018;4.282;2022-10-29T03:23:12;13.90;99.90
18906;DHT22;9585;51.018;4.282;2022-10-29T03:25:41;13.90;99.90
18906;DHT22;9585;51.018;4.282;2022-10-29T03:28:08;14.00;99.90
18906;DHT22;9585;51.018;4.282;2022-10-29T03:30:35;14.00;99.90
18906;DHT22;9585;51.018;4.282;2022-10-29T03:33:03;14.00;99.90
18906;DHT22;9585;51.018;4.282;2022-10-29T03:35:30;14.10;99.90
18906;DHT22;9585;51.018;4.282;2022-10-29T03:37:57;14.10;99.90
18906;DHT22;9585;51.018;4.282;2022-10-29T03:40:25;14.00;99.90
18906;DHT22;9585;51.018;4.282;2022-10-29T03:42:53;14.10;99.90
18906;DHT22;9585;51.018;4.282;2022-10-29T03:45:21;14.10;99.90
18906;DHT22;9585;51.018;4.282;2022-10-29T03:47:48;14.20;99.90
18906;DHT22;9585;51.018;4.282;2022-10-29T03:50:15;14.20;99.90
18906;DHT22;9585;51.018;4.282;2022-10-29T03:52:43;14.20;99.90
18906;DHT22;9585;51.018;4.282;2022-10-29T03:55:10;14.20;99.90
18906;DHT22;9585;51.018;4.282;2022-10-29T03:57:37;14.10;99.90
18906;DHT22;9585;51.018;4.282;2022-10-29T04:00:08;14.20;99.90
18906;DHT22;9585;51.018;4.282;2022-10-29T04:02:35;14.20;99.90
18906;DHT22;9585;51.018;4.282;2022-10-29T04:05:03;14.20;99.90
18906;DHT22;9585;51.018;4.282;2022-10-29T04:07:30;14.10;99.90
18906;DHT22;9585;51.018;4.282;2022-10-29T04:09:57;14.10;99.90
18906;DHT22;9585;51.018;4.282;2022-10-29T04:12:24;14.10;99.90
18906;DHT22;9585;51.018;4.282;2022-10-29T04:14:52;14.20;99.90
18906;DHT22;9585;51.018;4.282;2022-10-29T04:17:21;14.10;99.90
18906;DHT22;9585;51.018;4.282;2022-10-29T04:19:48;14.00;99.90
18906;DHT22;9585;51.018;4.282;2022-10-29T04:22:15;13.90;99.90
18906;DHT22;9585;51.018;4.282;2022-10-29T04:24:42;13.90;99.90
18906;DHT22;9585;51.018;4.282;2022-10-29T04:27:09;13.90;99.90
18906;DHT22;9585;51.018;4.282;2022-10-29T04:29:37;13.90;99.90
18906;DHT22;9585;51.018;4.282;2022-10-29T04:32:04;13.90;99.90
18906;DHT22;9585;51.018;4.282;2022-10-29T04:34:33;13.90;99.90
18906;DHT22;9585;51.018;4.282;2022-10-29T04:37:00;13.90;99.90
18906;DHT22;9585;51.018;4.282;2022-10-29T04:39:28;13.90;99.90
18906;DHT22;9585;51.018;4.282;2022-10-29T04:41:55;13.90;99.90
18906;DHT22;9585;51.018;4.282;2022-10-29T04:44:22;13.90;99.90
18906;DHT22;9585;51.018;4.282;2022-10-29T04:46:50;14.00;99.90
18906;DHT22;9585;51.018;4.282;2022-10-29T04:49:17;14.00;99.90
18906;DHT22;9585;51.018;4.282;2022-10-29T04:51:46;14.00;99.90
18906;DHT22;9585;51.018;4.282;2022-10-29T04:54:13;14.00;99.90
18906;DHT22;9585;51.018;4.282;2022-10-29T04:56:41;14.00;99.90
18906;DHT22;9585;51.018;4.282;2022-10-29T04:59:08;14.00;99.90
18906;DHT22;9585;51.018;4.282;2022-10-29T05:01:36;13.90;99.90
18906;DHT22;9585;51.018;4.282;2022-10-29T05:04:03;13.90;99.90
18906;DHT22;9585;51.018;4.282;2022-10-29T05:06:30;13.90;99.90
18906;DHT22;9585;51.018;4.282;2022-10-29T05:08:59;14.00;99.90
18906;DHT22;9585;51.018;4.282;2022-10-29T05:11:27;14.00;99.90
18906;DHT22;9585;51.018;4.282;2022-10-29T05:13:54;14.00;99.90
18906;DHT22;9585;51.018;4.282;2022-10-29T05:16:21;13.90;99.90
18906;DHT22;9585;51.018;4.282;2022-10-29T05:18:48;13.90;99.90
18906;DHT22;9585;51.018;4.282;2022-10-29T05:21:16;13.90;99.90
18906;DHT22;9585;51.018;4.282;2022-10-29T05:23:43;13.90;99.90
18906;DHT22;9585;51.018;4.282;2022-10-29T05:26:12;13.90;99.90
18906;DHT22;9585;51.018;4.282;2022-10-29T05:28:39;13.80;99.90
18906;DHT22;9585;51.018;4.282;2022-10-29T05:31:06;13.80;99.90
18906;DHT22;9585;51.018;4.282;2022-10-29T05:33:34;13.80;99.90
18906;DHT22;9585;51.018;4.282;2022-10-29T05:36:01;13.80;99.90
18906;DHT22;9585;51.018;4.282;2022-10-29T05:38:28;13.80;99.90
18906;DHT22;9585;51.018;4.282;2022-10-29T05:40:57;13.70;99.90
18906;DHT22;9585;51.018;4.282;2022-10-29T05:43:26;13.60;99.90
18906;DHT22;9585;51.018;4.282;2022-10-29T05:45:53;13.60;99.90
18906;DHT22;9585;51.018;4.282;2022-10-29T05:48:20;13.60;99.90
18906;DHT22;9585;51.018;4.282;2022-10-29T05:50:48;13.60;99.90
18906;DHT22;9585;51.018;4.282;2022-10-29T05:53:15;13.60;99.90
18906;DHT22;9585;51.018;4.282;2022-10-29T05:55:42;13.60;99.90
18906;DHT22;9585;51.018;4.282;2022-10-29T05:58:12;13.60;99.90
18906;DHT22;9585;51.018;4.282;2022-10-29T06:00:42;13.60;99.90
18906;DHT22;9585;51.018;4.282;2022-10-29T06:03:12;13.60;99.90
18906;DHT22;9585;51.018;4.282;2022-10-29T06:05:39;13.50;99.90
18906;DHT22;9585;51.018;4.282;2022-10-29T06:08:07;13.50;99.90
18906;DHT22;9585;51.018;4.282;2022-10-29T06:10:34;13.40;99.90
18906;DHT22;9585;51.018;4.282;2022-10-29T06:13:02;13.30;99.90
18906;DHT22;9585;51.018;4.282;2022-10-29T06:15:35;13.30;99.90
18906;DHT22;9585;51.018;4.282;2022-10-29T06:18:04;13.20;99.90
18906;DHT22;9585;51.018;4.282;2022-10-29T06:20:31;13.20;99.90
18906;DHT22;9585;51.018;4.282;2022-10-29T06:22:59;13.20;99.90
18906;DHT22;9585;51.018;4.282;2022-10-29T06:25:26;13.20;99.90
18906;DHT22;9585;51.018;4.282;2022-10-29T06:27:58;13.30;99.90
18906;DHT22;9585;51.018;4.282;2022-10-29T06:30:26;13.20;99.90
18906;DHT22;9585;51.018;4.282;2022-10-29T06:32:53;13.20;99.90
18906;DHT22;9585;51.018;4.282;2022-10-29T06:35:22;13.20;99.90
18906;DHT22;9585;51.018;4.282;2022-10-29T06:37:49;13.20;99.90
18906;DHT22;9585;51.018;4.282;2022-10-29T06:40:17;13.20;99.90
18906;DHT22;9585;51.018;4.282;2022-10-29T06:42:44;13.20;99.90
18906;DHT22;9585;51.018;4.282;2022-10-29T06:45:12;13.20;99.90
18906;DHT22;9585;51.018;4.282;2022-10-29T06:47:40;13.20;99.90
18906;DHT22;9585;51.018;4.282;2022-10-29T06:50:08;13.20;99.90
18906;DHT22;9585;51.018;4.282;2022-10-29T06:52:37;13.20;99.90
18906;DHT22;9585;51.018;4.282;2022-10-29T06:55:06;13.20;99.90
18906;DHT22;9585;51.018;4.282;2022-10-29T06:57:33;13.20;99.90
18906;DHT22;9585;51.018;4.282;2022-10-29T07:00:01;13.20;99.90
18906;DHT22;9585;51.018;4.282;2022-10-29T07:02:28;13.30;99.90
18906;DHT22;9585;51.018;4.282;2022-10-29T07:04:55;13.40;99.90
18906;DHT22;9585;51.018;4.282;2022-10-29T07:07:22;13.40;99.90
18906;DHT22;9585;51.018;4.282;2022-10-29T07:09:51;13.40;99.90
18906;DHT22;9585;51.018;4.282;2022-10-29T07:12:18;13.50;99.90
18906;DHT22;9585;51.018;4.282;2022-10-29T07:14:45;13.60;99.90
18906;DHT22;9585;51.018;4.282;2022-10-29T07:17:12;13.60;99.90
18906;DHT22;9585;51.018;4.282;2022-10-29T07:19:40;13.70;99.90
18906;DHT22;9585;51.018;4.282;2022-10-29T07:22:07;13.70;99.90
18906;DHT22;9585;51.018;4.282;2022-10-29T07:24:34;13.70;99.90
18906;DHT22;9585;51.018;4.282;2022-10-29T07:27:03;13.70;99.90
18906;DHT22;9585;51.018;4.282;2022-10-29T07:29:31;13.80;99.90
18906;DHT22;9585;51.018;4.282;2022-10-29T07:31:59;13.90;99.90
18906;DHT22;9585;51.018;4.282;2022-10-29T07:34:27;13.90;99.90
18906;DHT22;9585;51.018;4.282;2022-10-29T07:36:56;14.00;99.90
18906;DHT22;9585;51.018;4.282;2022-10-29T07:39:24;14.00;99.90
18906;DHT22;9585;51.018;4.282;2022-10-29T07:41:51;14.20;99.90
18906;DHT22;9585;51.018;4.282;2022-10-29T07:44:19;14.20;99.90
18906;DHT22;9585;51.018;4.282;2022-10-29T07:46:47;14.20;99.90
18906;DHT22;9585;51.018;4.282;2022-10-29T07:49:14;14.30;99.90
18906;DHT22;9585;51.018;4.282;2022-10-29T07:51:42;14.30;99.90
18906;DHT22;9585;51.018;4.282;2022-10-29T07:54:09;14.40;99.90
18906;DHT22;9585;51.018;4.282;2022-10-29T07:56:36;14.40;99.90
18906;DHT22;9585;51.018;4.282;2022-10-29T07:59:03;14.40;99.90
18906;DHT22;9585;51.018;4.282;2022-10-29T08:01:35;14.30;99.90
18906;DHT22;9585;51.018;4.282;2022-10-29T08:04:02;14.30;99.90
18906;DHT22;9585;51.018;4.282;2022-10-29T08:06:29;14.40;99.90
18906;DHT22;9585;51.018;4.282;2022-10-29T08:08:56;14.40;99.90
18906;DHT22;9585;51.018;4.282;2022-10-29T08:11:23;14.40;99.90
18906;DHT22;9585;51.018;4.282;2022-10-29T08:13:51;14.50;99.90
18906;DHT22;9585;51.018;4.282;2022-10-29T08:16:18;14.60;99.90
18906;DHT22;9585;51.018;4.282;2022-10-29T08:18:47;14.70;99.90
18906;DHT22;9585;51.018;4.282;2022-10-29T08:21:14;14.80;99.90
18906;DHT22;9585;51.018;4.282;2022-10-29T08:23:41;14.80;99.90
18906;DHT22;9585;51.018;4.282;2022-10-29T08:26:08;14.90;99.90
18906;DHT22;9585;51.018;4.282;2022-10-29T08:28:36;14.90;99.90
18906;DHT22;9585;51.018;4.282;2022-10-29T08:31:03;15.10;99.90
18906;DHT22;9585;51.018;4.282;2022-10-29T08:33:30;15.20;99.90
18906;DHT22;9585;51.018;4.282;2022-10-29T08:35:59;15.40;99.90
18906;DHT22;9585;51.018;4.282;2022-10-29T08:38:26;15.50;99.90
18906;DHT22;9585;51.018;4.282;2022-10-29T08:41:05;15.60;99.90
18906;DHT22;9585;51.018;4.282;2022-10-29T08:43:59;15.50;99.90
18906;DHT22;9585;51.018;4.282;2022-10-29T08:46:41;15.40;99.90
18906;DHT22;9585;51.018;4.282;2022-10-29T08:49:13;15.50;99.90
18906;DHT22;9585;51.018;4.282;2022-10-29T08:51:46;15.50;99.90
18906;DHT22;9585;51.018;4.282;2022-10-29T08:54:16;15.70;99.90
18906;DHT22;9585;51.018;4.282;2022-10-29T08:56:46;16.00;99.90
18906;DHT22;9585;51.018;4.282;2022-10-29T08:59:16;16.20;99.90
18906;DHT22;9585;51.018;4.282;2022-10-29T09:01:44;16.30;99.90
18906;DHT22;9585;51.018;4.282;2022-10-29T09:04:21;16.50;99.90
18906;DHT22;9585;51.018;4.282;2022-10-29T09:07:08;16.50;99.90
18906;DHT22;9585;51.018;4.282;2022-10-29T09:09:38;16.60;99.90
18906;DHT22;9585;51.018;4.282;2022-10-29T09:12:19;16.70;99.90
18906;DHT22;9585;51.018;4.282;2022-10-29T09:15:10;16.60;99.90
18906;DHT22;9585;51.018;4.282;2022-10-29T09:17:47;16.40;99.90
18906;DHT22;9585;51.018;4.282;2022-10-29T09:20:22;16.50;99.90
18906;DHT22;9585;51.018;4.282;2022-10-29T09:23:03;16.60;99.90
18906;DHT22;9585;51.018;4.282;2022-10-29T09:25:37;16.90;99.90
18906;DHT22;9585;51.018;4.282;2022-10-29T09:28:15;17.10;99.90
18906;DHT22;9585;51.018;4.282;2022-10-29T09:30:50;17.10;99.90
18906;DHT22;9585;51.018;4.282;2022-10-29T09:33:19;17.30;99.90
18906;DHT22;9585;51.018;4.282;2022-10-29T09:35:52;17.40;99.90
18906;DHT22;9585;51.018;4.282;2022-10-29T09:38:22;17.50;99.90
18906;DHT22;9585;51.018;4.282;2022-10-29T09:40:50;17.70;99.90
18906;DHT22;9585;51.018;4.282;2022-10-29T09:43:26;17.80;99.90
18906;DHT22;9585;51.018;4.282;2022-10-29T09:45:58;18.00;99.90
18906;DHT22;9585;51.018;4.282;2022-10-29T09:48:31;18.20;99.90
18906;DHT22;9585;51.018;4.282;2022-10-29T09:51:09;18.40;99.90
18906;DHT22;9585;51.018;4.282;2022-10-29T09:53:42;18.80;99.90
18906;DHT22;9585;51.018;4.282;2022-10-29T09:56:10;18.90;99.90
18906;DHT22;9585;51.018;4.282;2022-10-29T09:58:40;19.00;99.90
18906;DHT22;9585;51.018;4.282;2022-10-29T10:01:07;19.10;99.90
18906;DHT22;9585;51.018;4.282;2022-10-29T10:03:37;19.00;99.90
18906;DHT22;9585;51.018;4.282;2022-10-29T10:06:08;19.10;99.90
18906;DHT22;9585;51.018;4.282;2022-10-29T10:08:58;19.10;99.90
18906;DHT22;9585;51.018;4.282;2022-10-29T10:11:29;19.20;99.90
18906;DHT22;9585;51.018;4.282;2022-10-29T10:13:59;19.30;99.90
18906;DHT22;9585;51.018;4.282;2022-10-29T10:16:27;19.50;99.90
18906;DHT22;9585;51.018;4.282;2022-10-29T10:18:55;19.50;99.90
18906;DHT22;9585;51.018;4.282;2022-10-29T10:21:25;19.60;99.90
18906;DHT22;9585;51.018;4.282;2022-10-29T10:23:53;19.70;99.90
18906;DHT22;9585;51.018;4.282;2022-10-29T10:26:32;19.90;99.90
18906;DHT22;9585;51.018;4.282;2022-10-29T10:29:14;20.00;99.90
18906;DHT22;9585;51.018;4.282;2022-10-29T10:32:12;20.20;99.90
18906;DHT22;9585;51.018;4.282;2022-10-29T10:34:41;20.30;99.90
18906;DHT22;9585;51.018;4.282;2022-10-29T10:37:13;20.40;99.90
18906;DHT22;9585;51.018;4.282;2022-10-29T10:39:44;20.50;99.90
18906;DHT22;9585;51.018;4.282;2022-10-29T10:42:17;20.70;99.90
18906;DHT22;9585;51.018;4.282;2022-10-29T10:44:48;20.60;99.90
18906;DHT22;9585;51.018;4.282;2022-10-29T10:47:19;20.60;99.90
18906;DHT22;9585;51.018;4.282;2022-10-29T10:49:48;20.60;99.90
18906;DHT22;9585;51.018;4.282;2022-10-29T10:52:17;20.60;99.90
18906;DHT22;9585;51.018;4.282;2022-10-29T10:54:46;20.80;99.90
18906;DHT22;9585;51.018;4.282;2022-10-29T10:57:23;21.00;99.90
18906;DHT22;9585;51.018;4.282;2022-10-29T10:59:59;21.10;99.90
18906;DHT22;9585;51.018;4.282;2022-10-29T11:02:38;21.30;99.90
18906;DHT22;9585;51.018;4.282;2022-10-29T11:05:15;21.20;99.90
18906;DHT22;9585;51.018;4.282;2022-10-29T11:07:46;21.40;99.90
18906;DHT22;9585;51.018;4.282;2022-10-29T11:10:17;21.60;99.90
18906;DHT22;9585;51.018;4.282;2022-10-29T11:12:48;21.70;99.90
18906;DHT22;9585;51.018;4.282;2022-10-29T11:15:24;21.70;99.90
18906;DHT22;9585;51.018;4.282;2022-10-29T11:17:55;21.90;99.90
18906;DHT22;9585;51.018;4.282;2022-10-29T11:20:27;22.10;99.90
18906;DHT22;9585;51.018;4.282;2022-10-29T11:23:19;22.00;99.90
18906;DHT22;9585;51.018;4.282;2022-10-29T11:25:52;22.30;99.90
18906;DHT22;9585;51.018;4.282;2022-10-29T11:28:28;22.40;99.90
18906;DHT22;9585;51.018;4.282;2022-10-29T11:31:02;22.60;99.90
18906;DHT22;9585;51.018;4.282;2022-10-29T11:33:37;22.70;99.90
18906;DHT22;9585;51.018;4.282;2022-10-29T11:36:13;22.90;99.90
18906;DHT22;9585;51.018;4.282;2022-10-29T11:38:45;23.20;99.90
18906;DHT22;9585;51.018;4.282;2022-10-29T11:41:22;23.20;99.90
18906;DHT22;9585;51.018;4.282;2022-10-29T11:43:52;23.30;99.90
18906;DHT22;9585;51.018;4.282;2022-10-29T11:46:27;23.50;99.90
18906;DHT22;9585;51.018;4.282;2022-10-29T11:49:02;23.60;99.90
18906;DHT22;9585;51.018;4.282;2022-10-29T11:51:40;23.80;99.90
18906;DHT22;9585;51.018;4.282;2022-10-29T11:54:24;23.70;99.90
18906;DHT22;9585;51.018;4.282;2022-10-29T11:56:58;23.90;99.90
18906;DHT22;9585;51.018;4.282;2022-10-29T11:59:38;24.00;99.90
18906;DHT22;9585;51.018;4.282;2022-10-29T12:02:18;24.10;99.90
18906;DHT22;9585;51.018;4.282;2022-10-29T12:04:55;24.20;99.90
18906;DHT22;9585;51.018;4.282;2022-10-29T12:07:34;24.20;99.90
18906;DHT22;9585;51.018;4.282;2022-10-29T12:12:57;24.50;99.90
18906;DHT22;9585;51.018;4.282;2022-10-29T12:15:34;24.60;99.90
18906;DHT22;9585;51.018;4.282;2022-10-29T12:18:11;24.70;99.90
18906;DHT22;9585;51.018;4.282;2022-10-29T12:20:45;24.70;99.90
18906;DHT22;9585;51.018;4.282;2022-10-29T12:23:23;24.60;99.90
18906;DHT22;9585;51.018;4.282;2022-10-29T12:26:01;24.20;99.90
18906;DHT22;9585;51.018;4.282;2022-10-29T12:28:38;23.70;99.90
18906;DHT22;9585;51.018;4.282;2022-10-29T12:31:19;23.50;99.90
18906;DHT22;9585;51.018;4.282;2022-10-29T12:33:54;23.40;99.90
18906;DHT22;9585;51.018;4.282;2022-10-29T12:36:30;23.10;99.90
18906;DHT22;9585;51.018;4.282;2022-10-29T12:38:59;23.00;99.90
18906;DHT22;9585;51.018;4.282;2022-10-29T12:41:32;23.00;99.90
18906;DHT22;9585;51.018;4.282;2022-10-29T12:44:08;23.00;99.90
18906;DHT22;9585;51.018;4.282;2022-10-29T12:46:41;23.10;99.90
18906;DHT22;9585;51.018;4.282;2022-10-29T12:49:17;23.10;99.90
18906;DHT22;9585;51.018;4.282;2022-10-29T12:54:24;23.20;99.90
18906;DHT22;9585;51.018;4.282;2022-10-29T12:56:53;23.30;99.90
18906;DHT22;9585;51.018;4.282;2022-10-29T12:59:29;23.20;99.90
18906;DHT22;9585;51.018;4.282;2022-10-29T13:02:26;23.20;99.90
18906;DHT22;9585;51.018;4.282;2022-10-29T13:05:14;23.40;99.90
18906;DHT22;9585;51.018;4.282;2022-10-29T13:13:49;23.40;99.90
18906;DHT22;9585;51.018;4.282;2022-10-29T13:16:20;23.50;99.90
18906;DHT22;9585;51.018;4.282;2022-10-29T13:19:04;23.50;99.90
18906;DHT22;9585;51.018;4.282;2022-10-29T13:22:05;23.60;99.90
18906;DHT22;9585;51.018;4.282;2022-10-29T13:25:27;23.60;99.90
18906;DHT22;9585;51.018;4.282;2022-10-29T13:27:55;23.60;99.90
18906;DHT22;9585;51.018;4.282;2022-10-29T13:30:24;23.50;99.90
18906;DHT22;9585;51.018;4.282;2022-10-29T13:32:53;23.50;99.90
18906;DHT22;9585;51.018;4.282;2022-10-29T13:35:41;23.50;99.90
18906;DHT22;9585;51.018;4.282;2022-10-29T13:38:14;23.60;99.90
18906;DHT22;9585;51.018;4.282;2022-10-29T13:41:03;23.50;99.90
18906;DHT22;9585;51.018;4.282;2022-10-29T13:43:33;23.50;99.90
18906;DHT22;9585;51.018;4.282;2022-10-29T13:48:29;23.60;99.90
18906;DHT22;9585;51.018;4.282;2022-10-29T13:51:04;23.70;99.90
18906;DHT22;9585;51.018;4.282;2022-10-29T13:53:37;23.80;99.90
18906;DHT22;9585;51.018;4.282;2022-10-29T13:56:09;23.90;99.90
18906;DHT22;9585;51.018;4.282;2022-10-29T13:58:41;23.90;99.90
18906;DHT22;9585;51.018;4.282;2022-10-29T14:01:13;23.90;99.90
18906;DHT22;9585;51.018;4.282;2022-10-29T14:03:54;23.80;99.90
18906;DHT22;9585;51.018;4.282;2022-10-29T14:06:28;23.80;99.90
18906;DHT22;9585;51.018;4.282;2022-10-29T14:09:04;23.70;99.90
18906;DHT22;9585;51.018;4.282;2022-10-29T14:11:37;23.80;99.90
18906;DHT22;9585;51.018;4.282;2022-10-29T14:14:18;23.70;99.90
18906;DHT22;9585;51.018;4.282;2022-10-29T14:16:48;23.60;99.90
18906;DHT22;9585;51.018;4.282;2022-10-29T14:24:10;23.30;99.90
18906;DHT22;9585;51.018;4.282;2022-10-29T14:26:43;23.10;99.90
18906;DHT22;9585;51.018;4.282;2022-10-29T14:29:18;23.00;99.90
18906;DHT22;9585;51.018;4.282;2022-10-29T14:31:46;22.90;99.90
18906;DHT22;9585;51.018;4.282;2022-10-29T14:34:22;22.90;99.90
18906;DHT22;9585;51.018;4.282;2022-10-29T14:36:54;22.90;99.90
18906;DHT22;9585;51.018;4.282;2022-10-29T14:39:25;22.80;99.90
18906;DHT22;9585;51.018;4.282;2022-10-29T14:46:51;22.70;99.90
18906;DHT22;9585;51.018;4.282;2022-10-29T14:49:23;22.60;99.90
18906;DHT22;9585;51.018;4.282;2022-10-29T14:51:54;22.50;99.90
18906;DHT22;9585;51.018;4.282;2022-10-29T14:56:54;22.50;99.90
18906;DHT22;9585;51.018;4.282;2022-10-29T14:59:24;22.40;99.90
18906;DHT22;9585;51.018;4.282;2022-10-29T15:01:54;22.30;99.90
18906;DHT22;9585;51.018;4.282;2022-10-29T15:04:23;22.30;99.90
18906;DHT22;9585;51.018;4.282;2022-10-29T15:06:52;22.30;99.90
18906;DHT22;9585;51.018;4.282;2022-10-29T15:09:22;22.30;99.90
18906;DHT22;9585;51.018;4.282;2022-10-29T15:12:07;22.20;99.90
18906;DHT22;9585;51.018;4.282;2022-10-29T15:14:46;22.10;99.90
18906;DHT22;9585;51.018;4.282;2022-10-29T15:17:20;22.00;99.90
18906;DHT22;9585;51.018;4.282;2022-10-29T15:19:51;22.00;99.90
18906;DHT22;9585;51.018;4.282;2022-10-29T15:22:25;21.90;99.90
18906;DHT22;9585;51.018;4.282;2022-10-29T15:24:54;21.80;99.90
18906;DHT22;9585;51.018;4.282;2022-10-29T15:27:23;21.80;99.90
18906;DHT22;9585;51.018;4.282;2022-10-29T15:29:51;21.70;99.90
18906;DHT22;9585;51.018;4.282;2022-10-29T15:32:19;21.70;99.90
18906;DHT22;9585;51.018;4.282;2022-10-29T15:34:48;21.70;99.90
18906;DHT22;9585;51.018;4.282;2022-10-29T15:37:39;21.70;99.90
18906;DHT22;9585;51.018;4.282;2022-10-29T15:40:10;21.60;99.90
18906;DHT22;9585;51.018;4.282;2022-10-29T15:42:39;21.50;99.90
18906;DHT22;9585;51.018;4.282;2022-10-29T15:45:16;21.40;99.90
18906;DHT22;9585;51.018;4.282;2022-10-29T15:50:37;21.40;99.90
18906;DHT22;9585;51.018;4.282;2022-10-29T15:53:08;21.20;99.90
18906;DHT22;9585;51.018;4.282;2022-10-29T15:55:37;21.20;99.90
18906;DHT22;9585;51.018;4.282;2022-10-29T15:58:11;21.10;99.90
18906;DHT22;9585;51.018;4.282;2022-10-29T16:00:39;21.00;99.90
18906;DHT22;9585;51.018;4.282;2022-10-29T16:03:12;20.90;99.90
18906;DHT22;9585;51.018;4.282;2022-10-29T16:05:42;20.90;99.90
18906;DHT22;9585;51.018;4.282;2022-10-29T16:08:19;20.80;99.90
18906;DHT22;9585;51.018;4.282;2022-10-29T16:10:48;20.70;99.90
18906;DHT22;9585;51.018;4.282;2022-10-29T16:13:17;20.60;99.90
18906;DHT22;9585;51.018;4.282;2022-10-29T16:15:45;20.50;99.90
18906;DHT22;9585;51.018;4.282;2022-10-29T16:18:12;20.40;99.90
18906;DHT22;9585;51.018;4.282;2022-10-29T16:20:40;20.40;99.90
18906;DHT22;9585;51.018;4.282;2022-10-29T16:23:08;20.40;99.90
18906;DHT22;9585;51.018;4.282;2022-10-29T16:25:41;20.30;99.90
18906;DHT22;9585;51.018;4.282;2022-10-29T16:28:13;20.20;99.90
18906;DHT22;9585;51.018;4.282;2022-10-29T16:30:42;20.10;99.90
18906;DHT22;9585;51.018;4.282;2022-10-29T16:33:10;20.00;99.90
18906;DHT22;9585;51.018;4.282;2022-10-29T16:35:38;19.90;99.90
18906;DHT22;9585;51.018;4.282;2022-10-29T16:38:05;19.90;99.90
18906;DHT22;9585;51.018;4.282;2022-10-29T16:40:32;19.80;99.90
18906;DHT22;9585;51.018;4.282;2022-10-29T16:43:00;19.70;99.90